Decoded Metar for KGFA (GREAT FALLS in MT, USA) (IATA:N/A) | Meteo·Mobile Aviation Weather
aviador You're here:

KGFA Decoded Metar

GREAT FALLS in MT, USA
Report Time2019-10-22 12:58:00
UTC Time2019-10-22 13:45:57
Flight Rules vfr VFR
Wind220° at 14 kt
Visibility9999 m
Phenomena:N/A
Clouds:Broken 220 Hf
Expected CloudBase > 2,000 ft AGL from Temp-Dew spread
Ceiling22,000 ft
Temp06°C (ISA -2)
Dew Point01°C (71% RH)
AAT-0.9°C
QNH1014 hPa
Density Alt3,356 ft
Elevation3,527 ft
Report Wrong Elevation
Raw Report
KGFA 221258Z AUTO 22014KT 10SM BKN220 06/01 A2994 RMK AO2 SLP159
T00640009 $=

Extra information for KGFA:More info

Metar Taf Metar & Taf Last 4 Metars F.Rules Stats Wind Profile Meteogram Temp Stats Airport Information Weather charts Add Link Nearby VenuesMetar ALERT Operation Metar Decoded Social comments

AIRNAV info for KGFA